createdAt,value
2018-05-05T00:02:13.654Z,11.20
2018-05-05T00:04:41.090Z,11.20
2018-05-05T00:07:08.997Z,11.10
2018-05-05T00:09:37.271Z,11.00
2018-05-05T00:12:05.519Z,10.90
2018-05-05T00:14:33.026Z,10.90
2018-05-05T00:17:00.501Z,10.90
2018-05-05T00:19:28.001Z,10.90
2018-05-05T00:21:55.469Z,10.90
2018-05-05T00:24:22.932Z,10.80
2018-05-05T00:26:51.742Z,10.80
2018-05-05T00:29:19.970Z,10.80
2018-05-05T00:31:47.449Z,10.70
2018-05-05T00:34:17.950Z,10.70
2018-05-05T00:36:45.509Z,10.60
2018-05-05T00:39:13.120Z,10.60
2018-05-05T00:41:40.554Z,10.70
2018-05-05T00:44:08.021Z,10.70
2018-05-05T00:46:36.197Z,10.70
2018-05-05T00:49:05.073Z,10.70
2018-05-05T00:51:33.321Z,10.70
2018-05-05T00:54:00.797Z,10.70
2018-05-05T00:56:28.297Z,10.70
2018-05-05T00:58:55.896Z,10.70
2018-05-05T01:01:24.275Z,10.60
2018-05-05T01:03:51.729Z,10.60
2018-05-05T01:06:21.108Z,10.70
2018-05-05T01:08:48.609Z,10.60
2018-05-05T01:11:16.717Z,10.60
2018-05-05T01:13:45.059Z,10.40
2018-05-05T01:16:12.723Z,10.40
2018-05-05T01:18:40.224Z,10.30
2018-05-05T01:21:09.164Z,10.30
2018-05-05T01:23:37.452Z,10.30
2018-05-05T01:26:05.451Z,10.30
2018-05-05T01:28:33.756Z,10.20
2018-05-05T01:31:01.776Z,10.20
2018-05-05T01:33:29.334Z,10.10
2018-05-05T01:35:56.865Z,10.00
2018-05-05T01:38:24.861Z,10.00
2018-05-05T01:40:52.366Z,10.10
2018-05-05T01:43:19.853Z,10.10
2018-05-05T01:45:47.516Z,10.00
2018-05-05T01:48:15.099Z,10.00
2018-05-05T01:50:42.774Z,10.00
2018-05-05T01:53:15.741Z,9.90
2018-05-05T01:55:50.093Z,9.90
2018-05-05T01:58:18.407Z,9.90
2018-05-05T02:00:46.175Z,9.90
2018-05-05T02:03:13.996Z,9.90
2018-05-05T02:05:42.802Z,9.90
2018-05-05T02:08:11.610Z,9.80
2018-05-05T02:10:39.161Z,9.70
2018-05-05T02:13:09.078Z,9.70
2018-05-05T02:15:36.963Z,9.70
2018-05-05T02:18:04.464Z,9.80
2018-05-05T02:20:34.604Z,9.80
2018-05-05T02:23:03.480Z,9.90
2018-05-05T02:25:30.996Z,9.80
2018-05-05T02:27:58.497Z,10.00
2018-05-05T02:30:26.771Z,10.20
2018-05-05T02:32:54.237Z,10.20
2018-05-05T02:35:22.479Z,10.20
2018-05-05T02:37:50.387Z,10.20
2018-05-05T02:40:22.351Z,10.10
2018-05-05T02:42:50.589Z,10.00
2018-05-05T02:45:18.820Z,10.00
2018-05-05T02:47:46.408Z,10.00
2018-05-05T02:50:13.877Z,10.00
2018-05-05T02:52:41.393Z,10.10
2018-05-05T02:55:08.935Z,10.10
2018-05-05T02:57:37.685Z,10.00
2018-05-05T03:00:05.148Z,10.00
2018-05-05T03:02:32.694Z,10.00
2018-05-05T03:05:00.222Z,10.00
2018-05-05T03:07:27.697Z,10.00
2018-05-05T03:09:55.731Z,10.00
2018-05-05T03:12:24.221Z,10.10
2018-05-05T03:14:51.702Z,10.00
2018-05-05T03:17:19.531Z,10.10
2018-05-05T03:19:47.768Z,10.10
2018-05-05T03:22:15.262Z,10.10
2018-05-05T03:24:42.743Z,10.10
2018-05-05T03:27:10.843Z,10.10
2018-05-05T03:29:38.354Z,10.10
2018-05-05T03:32:06.622Z,10.00
2018-05-05T03:34:34.110Z,10.00
2018-05-05T03:37:01.598Z,10.00
2018-05-05T03:39:30.139Z,10.10
2018-05-05T03:41:59.210Z,10.10
2018-05-05T03:44:26.692Z,10.00
2018-05-05T03:46:54.654Z,10.00
2018-05-05T03:49:22.901Z,9.90
2018-05-05T03:51:50.948Z,9.90
2018-05-05T03:54:18.435Z,9.80
2018-05-05T03:56:46.930Z,9.80
2018-05-05T03:59:26.618Z,9.80
2018-05-05T04:02:06.542Z,9.80
2018-05-05T04:04:34.761Z,9.80
2018-05-05T04:07:02.853Z,9.80
2018-05-05T04:09:30.836Z,9.80
2018-05-05T04:11:58.298Z,9.80
2018-05-05T04:14:26.540Z,9.80
2018-05-05T04:16:54.072Z,9.80
2018-05-05T04:19:21.488Z,9.70
2018-05-05T04:21:49.724Z,9.70
2018-05-05T04:24:17.630Z,9.70
2018-05-05T04:26:45.105Z,9.70
2018-05-05T04:29:13.874Z,9.80
2018-05-05T04:31:41.331Z,9.70
2018-05-05T04:34:20.980Z,9.80
2018-05-05T04:36:49.205Z,9.90
2018-05-05T04:39:16.684Z,9.90
2018-05-05T04:41:47.320Z,9.90
2018-05-05T04:44:14.848Z,9.90
2018-05-05T04:46:42.305Z,10.00
2018-05-05T04:49:09.788Z,10.00
2018-05-05T04:51:37.625Z,10.10
2018-05-05T04:54:05.106Z,10.10
2018-05-05T04:56:32.596Z,10.20
2018-05-05T04:59:03.210Z,10.20
2018-05-05T05:01:30.948Z,10.30
2018-05-05T05:03:58.437Z,10.40
2018-05-05T05:06:26.369Z,10.50
2018-05-05T05:08:53.827Z,10.50
2018-05-05T05:11:21.993Z,10.60
2018-05-05T05:13:49.910Z,10.70
2018-05-05T05:16:17.824Z,10.80
2018-05-05T05:18:45.713Z,11.20
2018-05-05T05:21:13.250Z,12.00
2018-05-05T05:23:40.716Z,12.90
2018-05-05T05:26:08.183Z,13.50
2018-05-05T05:28:35.649Z,13.90
2018-05-05T05:31:06.311Z,14.50
2018-05-05T05:33:33.780Z,15.10
2018-05-05T05:36:02.040Z,15.90
2018-05-05T05:38:29.651Z,15.90
2018-05-05T05:40:57.122Z,16.40
2018-05-05T05:43:24.605Z,16.80
2018-05-05T05:45:52.189Z,16.70
2018-05-05T05:48:20.579Z,17.40
2018-05-05T05:50:48.037Z,17.40
2018-05-05T05:53:15.496Z,17.60
2018-05-05T05:55:42.986Z,17.80
2018-05-05T05:58:10.473Z,17.90
2018-05-05T06:00:37.941Z,18.30
2018-05-05T06:03:05.402Z,18.80
2018-05-05T06:05:32.887Z,19.20
2018-05-05T06:08:01.519Z,18.70
2018-05-05T06:10:29.031Z,18.70
2018-05-05T06:12:58.358Z,19.10
2018-05-05T06:15:26.166Z,19.10
2018-05-05T06:17:53.634Z,19.30
2018-05-05T06:20:21.110Z,19.30
2018-05-05T06:22:49.350Z,19.40
2018-05-05T06:25:16.815Z,19.40
2018-05-05T06:27:44.325Z,19.40
2018-05-05T06:30:11.817Z,19.90
2018-05-05T06:32:39.661Z,20.30
2018-05-05T06:35:08.130Z,20.20
2018-05-05T06:37:35.880Z,20.30
2018-05-05T06:40:04.997Z,20.10
2018-05-05T06:42:33.689Z,20.10
2018-05-05T06:45:02.144Z,19.70
2018-05-05T06:47:30.536Z,19.40
2018-05-05T06:49:58.110Z,19.40
2018-05-05T06:52:26.451Z,20.50
2018-05-05T06:54:54.879Z,20.90
2018-05-05T06:57:22.754Z,20.90
2018-05-05T06:59:53.352Z,20.60
2018-05-05T07:02:21.163Z,20.50
2018-05-05T07:04:48.742Z,20.30
2018-05-05T07:07:16.326Z,20.40
2018-05-05T07:09:43.801Z,20.20
2018-05-05T07:12:11.329Z,20.40
2018-05-05T07:14:39.585Z,20.60
2018-05-05T07:17:07.082Z,20.50
2018-05-05T07:19:34.706Z,20.50
2018-05-05T07:22:02.206Z,20.60
2018-05-05T07:24:29.689Z,20.80
2018-05-05T07:26:57.704Z,20.80
2018-05-05T07:29:25.164Z,21.00
2018-05-05T07:31:53.677Z,21.30
2018-05-05T07:34:21.213Z,21.30
2018-05-05T07:36:49.511Z,21.00
2018-05-05T07:39:17.608Z,20.90
2018-05-05T07:41:51.570Z,20.60
2018-05-05T07:44:20.251Z,20.40
2018-05-05T07:46:55.879Z,20.60
2018-05-05T07:49:23.816Z,20.50
2018-05-05T07:51:51.300Z,20.60
2018-05-05T07:54:20.230Z,20.80
2018-05-05T07:56:49.243Z,20.80
2018-05-05T07:59:17.172Z,20.80
2018-05-05T08:01:44.705Z,21.10
2018-05-05T08:04:12.261Z,20.90
2018-05-05T08:06:42.179Z,20.40
2018-05-05T08:09:11.372Z,20.50
2018-05-05T08:11:40.165Z,20.70
2018-05-05T08:14:08.354Z,21.10
2018-05-05T08:16:36.034Z,21.60
2018-05-05T08:19:04.377Z,21.60
2018-05-05T08:21:32.368Z,21.60
2018-05-05T08:23:59.900Z,21.70
2018-05-05T08:26:27.938Z,21.50
2018-05-05T08:28:56.862Z,21.50
2018-05-05T08:31:28.974Z,21.60
2018-05-05T08:33:57.772Z,21.80
2018-05-05T08:36:26.054Z,21.70
2018-05-05T08:38:54.326Z,21.80
2018-05-05T08:41:22.590Z,22.00
2018-05-05T08:43:51.405Z,21.80
2018-05-05T08:46:19.191Z,21.80
2018-05-05T08:48:47.068Z,22.00
2018-05-05T08:51:17.073Z,22.00
2018-05-05T08:53:44.548Z,21.90
2018-05-05T08:56:12.108Z,21.90
2018-05-05T08:58:40.453Z,22.40
2018-05-05T09:01:07.994Z,23.00
2018-05-05T09:03:36.309Z,23.00
2018-05-05T09:06:05.499Z,23.00
2018-05-05T09:08:32.983Z,22.80
2018-05-05T09:11:00.485Z,22.60
2018-05-05T09:13:28.785Z,22.60
2018-05-05T09:15:57.139Z,22.60
2018-05-05T09:18:26.747Z,23.00
2018-05-05T09:20:55.210Z,23.60
2018-05-05T09:23:22.793Z,23.60
2018-05-05T09:25:51.029Z,23.40
2018-05-05T09:28:18.528Z,23.40
2018-05-05T09:30:46.915Z,23.40
2018-05-05T09:33:14.469Z,23.40
2018-05-05T09:35:42.716Z,23.60
2018-05-05T09:38:10.229Z,23.60
2018-05-05T09:40:38.150Z,23.30
2018-05-05T09:43:05.702Z,23.30
2018-05-05T09:45:33.255Z,23.70
2018-05-05T09:48:01.722Z,24.00
2018-05-05T09:50:29.326Z,24.10
2018-05-05T09:52:58.302Z,23.70
2018-05-05T09:55:25.902Z,24.10
2018-05-05T09:57:54.636Z,24.40
2018-05-05T10:00:22.270Z,24.80
2018-05-05T10:02:49.948Z,24.70
2018-05-05T10:07:51.225Z,24.70
2018-05-05T10:10:18.981Z,24.20
2018-05-05T10:12:46.790Z,24.30
2018-05-05T10:15:15.049Z,24.80
2018-05-05T10:17:44.552Z,24.00
2018-05-05T10:20:12.337Z,23.90
2018-05-05T10:22:41.075Z,24.20
2018-05-05T10:25:08.550Z,24.20
2018-05-05T10:27:36.027Z,24.10
2018-05-05T10:30:09.768Z,24.70
2018-05-05T10:32:38.004Z,24.70
2018-05-05T10:35:05.469Z,24.80
2018-05-05T10:37:33.727Z,24.80
2018-05-05T10:40:01.421Z,24.80
2018-05-05T10:42:29.402Z,24.90
2018-05-05T10:44:56.897Z,25.10
2018-05-05T10:47:24.365Z,25.40
2018-05-05T10:49:52.718Z,26.10
2018-05-05T10:52:20.313Z,25.80
2018-05-05T10:54:47.948Z,26.10
2018-05-05T10:57:15.865Z,26.40
2018-05-05T10:59:46.713Z,26.20
2018-05-05T11:02:14.652Z,26.00
2018-05-05T11:04:42.387Z,25.80
2018-05-05T11:07:09.853Z,25.90
2018-05-05T11:09:39.219Z,26.20
2018-05-05T11:12:06.711Z,26.30
2018-05-05T11:14:34.748Z,26.10
2018-05-05T11:17:02.313Z,26.40
2018-05-05T11:19:29.869Z,26.60
2018-05-05T11:21:57.815Z,27.00
2018-05-05T11:24:26.144Z,26.50
2018-05-05T11:26:55.020Z,26.40
2018-05-05T11:29:22.574Z,26.50
2018-05-05T11:31:50.780Z,26.20
2018-05-05T11:34:18.396Z,26.20
2018-05-05T11:36:46.406Z,26.70
2018-05-05T11:39:13.932Z,26.90
2018-05-05T11:41:41.400Z,26.40
2018-05-05T11:44:15.669Z,26.50
2018-05-05T11:46:43.929Z,26.40
2018-05-05T11:49:14.628Z,26.30
2018-05-05T11:56:15.033Z,26.30
2018-05-05T11:58:42.469Z,26.20
2018-05-05T12:01:09.977Z,26.60
2018-05-05T12:03:37.567Z,26.50
2018-05-05T12:06:05.102Z,26.70
2018-05-05T12:08:32.544Z,26.50
2018-05-05T12:11:00.017Z,26.60
2018-05-05T12:13:28.888Z,26.80
2018-05-05T12:15:57.149Z,26.70
2018-05-05T12:18:26.069Z,26.40
2018-05-05T12:20:53.571Z,26.40
2018-05-05T12:23:21.068Z,25.80
2018-05-05T12:25:49.348Z,26.10
2018-05-05T12:28:16.869Z,26.10
2018-05-05T12:30:44.829Z,26.40
2018-05-05T12:33:12.286Z,26.40
2018-05-05T12:35:39.816Z,26.30
2018-05-05T12:38:07.294Z,26.10
2018-05-05T12:40:34.780Z,25.90
2018-05-05T12:43:04.689Z,25.80
2018-05-05T12:45:32.283Z,25.80
2018-05-05T12:48:00.537Z,26.00
2018-05-05T12:50:31.107Z,26.00
2018-05-05T12:52:58.618Z,26.10
2018-05-05T12:55:26.131Z,25.90
2018-05-05T12:58:00.605Z,25.90
2018-05-05T13:00:28.134Z,26.00
2018-05-05T13:02:55.621Z,25.80
2018-05-05T13:05:23.112Z,26.00
2018-05-05T13:07:51.364Z,25.90
2018-05-05T13:10:19.976Z,25.80
2018-05-05T13:12:47.455Z,25.70
2018-05-05T13:15:14.977Z,25.90
2018-05-05T13:17:42.715Z,25.90
2018-05-05T13:20:10.174Z,25.80
2018-05-05T13:22:37.813Z,25.90
2018-05-05T13:25:05.317Z,26.00
2018-05-05T13:27:32.780Z,25.80
2018-05-05T13:30:00.690Z,25.90
2018-05-05T13:32:30.864Z,26.00
2018-05-05T13:34:58.784Z,26.00
2018-05-05T13:37:26.827Z,26.20
2018-05-05T13:39:54.297Z,26.50
2018-05-05T13:42:21.760Z,26.80
2018-05-05T13:44:49.232Z,27.20
2018-05-05T13:47:17.109Z,27.40
2018-05-05T13:49:44.578Z,27.50
2018-05-05T13:52:12.058Z,27.70
2018-05-05T13:54:40.366Z,28.30
2018-05-05T13:57:07.885Z,28.30
2018-05-05T13:59:35.567Z,28.30
2018-05-05T14:02:04.376Z,28.50
2018-05-05T14:04:32.108Z,28.50
2018-05-05T14:07:00.382Z,29.00
2018-05-05T14:09:28.637Z,29.20
2018-05-05T14:11:56.103Z,29.20
2018-05-05T14:14:23.604Z,29.60
2018-05-05T14:16:51.074Z,29.80
2018-05-05T14:19:18.536Z,29.40
2018-05-05T14:21:46.016Z,29.50
2018-05-05T14:24:14.427Z,29.40
2018-05-05T14:26:43.203Z,29.60
2018-05-05T14:29:10.700Z,29.60
2018-05-05T14:31:38.219Z,29.90
2018-05-05T14:34:05.685Z,30.00
2018-05-05T14:36:34.365Z,29.90
2018-05-05T14:39:01.904Z,29.80
2018-05-05T14:41:29.365Z,29.70
2018-05-05T14:43:57.048Z,30.10
2018-05-05T14:46:25.308Z,29.90
2018-05-05T14:48:52.773Z,29.80
2018-05-05T14:51:20.700Z,30.10
2018-05-05T14:53:48.201Z,30.50
2018-05-05T14:56:15.680Z,30.50
2018-05-05T14:58:46.035Z,30.80
2018-05-05T15:01:13.510Z,30.80
2018-05-05T15:03:40.979Z,31.20
2018-05-05T15:06:08.460Z,30.80
2018-05-05T15:08:35.946Z,30.90
2018-05-05T15:11:03.437Z,30.50
2018-05-05T15:13:30.913Z,30.40
2018-05-05T15:15:58.424Z,30.80
2018-05-05T15:18:26.045Z,30.80
2018-05-05T15:20:53.608Z,30.80
2018-05-05T15:23:21.790Z,30.50
2018-05-05T15:25:50.415Z,29.80
2018-05-05T15:28:17.924Z,29.80
2018-05-05T15:30:46.365Z,30.60
2018-05-05T15:33:14.389Z,30.50
2018-05-05T15:35:51.428Z,30.30
2018-05-05T15:38:18.958Z,30.50
2018-05-05T15:40:48.568Z,30.20
2018-05-05T15:43:16.089Z,29.70
2018-05-05T15:45:44.905Z,29.20
2018-05-05T15:48:12.522Z,29.20
2018-05-05T15:50:41.023Z,29.30
2018-05-05T15:53:08.847Z,29.30
2018-05-05T15:55:36.558Z,29.70
2018-05-05T15:58:05.362Z,29.80
2018-05-05T16:00:33.809Z,30.20
2018-05-05T16:03:01.590Z,30.20
2018-05-05T16:05:29.070Z,30.60
2018-05-05T16:07:56.668Z,31.00
2018-05-05T16:10:24.279Z,30.70
2018-05-05T16:12:52.605Z,30.10
2018-05-05T16:15:20.185Z,30.00
2018-05-05T16:17:48.179Z,29.70
2018-05-05T16:20:21.012Z,29.40
2018-05-05T16:22:49.168Z,29.40
2018-05-05T16:25:17.392Z,29.60
2018-05-05T16:27:44.984Z,29.80
2018-05-05T16:30:13.385Z,29.50
2018-05-05T16:32:51.205Z,29.40
2018-05-05T16:35:19.733Z,28.80
2018-05-05T16:37:48.629Z,29.10
2018-05-05T16:40:16.102Z,29.10
2018-05-05T16:42:46.152Z,28.60
2018-05-05T16:45:13.641Z,28.40
2018-05-05T16:47:41.234Z,28.30
2018-05-05T16:50:08.679Z,28.30
2018-05-05T16:52:36.926Z,27.60
2018-05-05T16:55:06.226Z,27.60
2018-05-05T16:57:33.693Z,27.20
2018-05-05T17:00:01.594Z,27.20
2018-05-05T17:02:29.124Z,27.20
2018-05-05T17:05:14.819Z,27.20
2018-05-05T17:07:43.541Z,27.10
2018-05-05T17:10:12.766Z,26.80
2018-05-05T17:12:40.329Z,26.90
2018-05-05T17:15:08.003Z,26.80
2018-05-05T17:17:35.520Z,26.60
2018-05-05T17:20:03.194Z,26.00
2018-05-05T17:22:30.703Z,25.20
2018-05-05T17:24:58.188Z,24.50
2018-05-05T17:27:26.347Z,23.90
2018-05-05T17:29:55.309Z,23.10
2018-05-05T17:32:24.429Z,23.10
2018-05-05T17:34:51.991Z,22.80
2018-05-05T17:37:19.553Z,22.50
2018-05-05T17:39:47.821Z,22.10
2018-05-05T17:42:15.278Z,22.00
2018-05-05T17:44:42.762Z,21.90
2018-05-05T17:47:11.621Z,21.60
2018-05-05T17:49:39.161Z,21.60
2018-05-05T17:52:07.828Z,21.50
2018-05-05T17:54:35.301Z,21.30
2018-05-05T17:57:04.315Z,21.20
2018-05-05T17:59:33.061Z,21.00
2018-05-05T18:02:00.922Z,20.90
2018-05-05T18:04:28.419Z,20.80
2018-05-05T18:06:56.214Z,20.70
2018-05-05T18:09:23.748Z,20.60
2018-05-05T18:11:51.841Z,20.50
2018-05-05T18:14:20.144Z,20.30
2018-05-05T18:16:47.617Z,20.30
2018-05-05T18:19:15.085Z,20.20
2018-05-05T18:21:49.379Z,20.00
2018-05-05T18:24:16.837Z,19.90
2018-05-05T18:26:44.318Z,19.80
2018-05-05T18:29:13.159Z,19.70
2018-05-05T18:31:41.540Z,19.40
2018-05-05T18:34:10.166Z,19.20
2018-05-05T18:36:37.796Z,19.10
2018-05-05T18:39:09.674Z,18.90
2018-05-05T18:41:37.717Z,18.90
2018-05-05T18:44:06.644Z,18.70
2018-05-05T18:46:34.135Z,18.70
2018-05-05T18:49:02.139Z,18.60
2018-05-05T18:51:30.426Z,18.40
2018-05-05T18:53:58.801Z,18.30
2018-05-05T18:56:27.446Z,18.30
2018-05-05T18:58:54.993Z,18.20
2018-05-05T19:01:23.573Z,18.20
2018-05-05T19:03:51.283Z,18.10
2018-05-05T19:06:19.799Z,17.90
2018-05-05T19:08:48.145Z,17.90
2018-05-05T19:11:15.712Z,17.90
2018-05-05T19:13:43.954Z,17.70
2018-05-05T19:16:11.819Z,17.70
2018-05-05T19:18:41.027Z,17.60
2018-05-05T19:21:08.507Z,17.60
2018-05-05T19:23:36.573Z,17.50
2018-05-05T19:26:04.474Z,17.40
2018-05-05T19:28:31.965Z,17.30
2018-05-05T19:30:59.872Z,17.30
2018-05-05T19:33:29.132Z,17.10
2018-05-05T19:35:56.718Z,17.10
2018-05-05T19:38:25.189Z,17.00
2018-05-05T19:40:53.204Z,17.00
2018-05-05T19:43:23.395Z,16.90
2018-05-05T19:45:51.471Z,16.80
2018-05-05T19:48:19.791Z,16.60
2018-05-05T19:50:48.771Z,16.50
2018-05-05T19:53:16.287Z,16.50
2018-05-05T19:55:43.926Z,16.40
2018-05-05T19:58:11.464Z,16.40
2018-05-05T20:00:39.011Z,16.30
2018-05-05T20:03:06.506Z,16.20
2018-05-05T20:05:34.744Z,16.20
2018-05-05T20:08:02.558Z,16.20
2018-05-05T20:10:30.034Z,16.10
2018-05-05T20:12:58.366Z,15.90
2018-05-05T20:15:25.967Z,15.90
2018-05-05T20:17:53.535Z,15.90
2018-05-05T20:20:21.799Z,15.80
2018-05-05T20:22:51.022Z,15.80
2018-05-05T20:25:19.717Z,15.70
2018-05-05T20:27:47.700Z,15.70
2018-05-05T20:30:15.441Z,15.70
2018-05-05T20:32:44.249Z,15.60
2018-05-05T20:35:11.728Z,15.60
2018-05-05T20:37:39.220Z,15.50
2018-05-05T20:40:06.719Z,15.50
2018-05-05T20:42:34.331Z,15.50
2018-05-05T20:45:02.198Z,15.40
2018-05-05T20:47:29.726Z,15.30
2018-05-05T20:50:04.202Z,15.30
2018-05-05T20:52:33.116Z,15.20
2018-05-05T20:55:01.420Z,15.20
2018-05-05T20:57:29.452Z,15.20
2018-05-05T20:59:58.107Z,15.10
2018-05-05T21:02:25.683Z,15.10
2018-05-05T21:04:53.586Z,15.00
2018-05-05T21:07:21.854Z,15.00
2018-05-05T21:09:49.371Z,14.90
2018-05-05T21:12:16.834Z,14.80
2018-05-05T21:14:44.372Z,14.80
2018-05-05T21:17:11.853Z,14.80
2018-05-05T21:19:40.181Z,14.80
2018-05-05T21:22:07.689Z,14.80
2018-05-05T21:24:35.173Z,14.70
2018-05-05T21:27:02.872Z,14.70
2018-05-05T21:29:30.365Z,14.70
2018-05-05T21:31:58.377Z,14.60
2018-05-05T21:34:33.917Z,14.60
2018-05-05T21:37:01.387Z,14.50
2018-05-05T21:39:28.865Z,14.40
2018-05-05T21:41:57.092Z,14.30
2018-05-05T21:44:25.328Z,14.20
2018-05-05T21:46:52.773Z,14.20
2018-05-05T21:49:20.744Z,14.30
2018-05-05T21:51:48.228Z,14.30
2018-05-05T21:54:16.681Z,14.30
2018-05-05T21:56:46.622Z,14.20
2018-05-05T21:59:14.320Z,14.20
2018-05-05T22:01:42.421Z,14.20
2018-05-05T22:04:10.666Z,14.10
2018-05-05T22:06:38.953Z,14.00
2018-05-05T22:09:06.405Z,14.00
2018-05-05T22:11:34.464Z,14.00
2018-05-05T22:14:02.879Z,14.00
2018-05-05T22:16:30.926Z,13.90
2018-05-05T22:18:58.389Z,13.90
2018-05-05T22:21:26.328Z,13.90
2018-05-05T22:23:53.805Z,13.80
2018-05-05T22:26:22.293Z,13.70
2018-05-05T22:28:50.559Z,13.70
2018-05-05T22:31:19.204Z,13.60
2018-05-05T22:33:46.707Z,13.60
2018-05-05T22:36:14.928Z,13.60
2018-05-05T22:38:42.393Z,13.60
2018-05-05T22:41:09.856Z,13.50
2018-05-05T22:43:37.636Z,13.40
2018-05-05T22:46:05.286Z,13.40
2018-05-05T22:48:32.801Z,13.40
2018-05-05T22:51:00.340Z,13.30
2018-05-05T22:53:28.590Z,13.20
2018-05-05T22:55:56.207Z,13.20
2018-05-05T22:58:24.136Z,13.20
2018-05-05T23:00:51.610Z,13.20
2018-05-05T23:03:19.843Z,13.20
2018-05-05T23:05:47.295Z,13.20
2018-05-05T23:08:14.915Z,13.30
2018-05-05T23:10:42.746Z,13.20
2018-05-05T23:13:10.229Z,13.10
2018-05-05T23:15:37.728Z,13.00
2018-05-05T23:18:09.472Z,13.00
2018-05-05T23:20:39.408Z,13.00
2018-05-05T23:23:06.989Z,12.90
2018-05-05T23:25:34.889Z,12.80
2018-05-05T23:28:03.484Z,12.80
2018-05-05T23:30:34.664Z,12.70
2018-05-05T23:33:02.344Z,12.70
2018-05-05T23:35:29.908Z,12.70
2018-05-05T23:37:57.386Z,12.70
2018-05-05T23:40:25.620Z,12.60
2018-05-05T23:42:53.626Z,12.50
2018-05-05T23:45:21.920Z,12.50
2018-05-05T23:47:50.653Z,12.50
2018-05-05T23:50:18.166Z,12.50
2018-05-05T23:52:45.628Z,12.40
2018-05-05T23:55:13.813Z,12.40
2018-05-05T23:57:42.844Z,12.30
